Johnsonburg, PA

5:58 AM EST on November 22, 2014 (GMT -0500)
Division Street Ext. | Change Station
CLOSE
Current Station
Personal Weather Station
Location: Mt Jewett, PA
Elevation: 2245 ft
Nearby Weather Stations
Active Advisory: Freezing Rain Advisory

Elev 2245 ft 41.70 °N, 78.64 °W | Updated 1 minute ago

Partly Cloudy
Partly Cloudy
14.6 °F
Feels Like 15 °F
N
0.7
Wind Variable Wind from SW
Gusts 2.7 mph

Today
High -- | Low -- °F
--% Chance of Precip.
Yesterday
High -- | Low -- °F
Precip. -- in
7:11 AM 4:49 PM
Waning Crescent, 0% visible
Pressure 30.36 in
Visibility 10.0 miles
Clouds Clear
Windchill 15 °F
Dew Point 8 °F
Humidity 75%
Rainfall 0.00 in
Snow Depth Not available.
UV 0 out of 12
Pollen .10 out of 12
Air Quality Not available.
Flu Activity Not available.
METAR KBFD 221053Z AUTO 21008KT 10SM CLR M08/M14 A3026 RMK AO2 SLP279 T10781144

More Conditions Fewer Conditions

Pressure 30.36 in
Visibility 10.0 miles
Clouds Clear
Windchill 15 °F
Dew Point 8 °F
Humidity 75%
Rainfall 0.00 in
Snow Depth Not available.
UV 0 out of 12
Pollen .10 out of 12
Air Quality Not available.
Flu Activity Not available.
METAR KBFD 221053Z AUTO 21008KT 10SM CLR M08/M14 A3026 RMK AO2 SLP279 T10781144

More Conditions Fewer Conditions

10-Day Weather Forecast

Almanac

Astronomy

Nov. 22, 2014 Rise Set
Actual Time
Civil Twilight
Nautical Twilight
Astronomical Twilight
Moon
Length of Visible Light
Length of Day
Tomorrow will be .
, % of the Moon is Illuminated

Today's Extremes

State Highs State Lows

Community

WunderPhotos

Upload Photos

1,772,805 photos uploaded!

WunderBlogs® & News

Nearby

Air Quality

  Air Quality AQ Index Pollutant
Not available.

Snow Depth

Station Depth Elevation

Earthquake Activity

City Distance Mag. Time & Date
Minimum magnitude displayed is 2.5.

Coastal Water Temperatures

Place Temperature

Nearby Weather Stations